Time;durP1;ratioP1;P1;durP2;ratioP2;P2;SDS_P1;SDS_P2;PMS_P1;PMS_P2;Temp;Humidity;BMP_temperature;BMP_pressure;BME280_temperature;BME280_humidity;BME280_pressure;Samples;Min_cycle;Max_cycle;Signal;HPM_P1;HPM_P2
2022/01/07 00:02:00;;;;;;;;;;;3.70;99.90;;;;;;5073390;28;19920;-77
2022/01/07 00:04:25;;;;;;;;;;;3.70;99.90;;;;;;5073028;28;20382;-77
2022/01/07 00:06:51;;;;;;;;;;;3.80;99.90;;;;;;5057108;28;19920;-77
2022/01/07 00:09:18;;;;;;;;;;;3.70;99.90;;;;;;5072678;28;20397;-78
2022/01/07 00:11:44;;;;;;;;;;;3.70;99.90;;;;;;5059379;28;20455;-78
2022/01/07 00:14:09;;;;;;;;;;;3.70;99.90;;;;;;5053028;28;19934;-78
2022/01/07 00:16:35;;;;;;;;;;;3.80;99.90;;;;;;5053183;28;19970;-77
2022/01/07 00:19:00;;;;;;;;;;;3.80;99.90;;;;;;5052792;28;19924;-77
2022/01/07 00:21:26;;;;;;;;;;;3.80;99.90;;;;;;5053154;28;19975;-78
2022/01/07 00:23:51;;;;;;;;;;;3.70;99.90;;;;;;5052142;28;19920;-77
2022/01/07 00:26:17;;;;;;;;;;;3.70;99.90;;;;;;5052823;28;19920;-77
2022/01/07 00:28:42;;;;;;;;;;;3.70;99.90;;;;;;5052358;28;20406;-77
2022/01/07 00:31:08;;;;;;;;;;;3.80;99.90;;;;;;5052719;28;19920;-78
2022/01/07 00:33:34;;;;;;;;;;;3.70;99.90;;;;;;5052207;28;19979;-77
2022/01/07 00:36:00;;;;;;;;;;;3.80;99.90;;;;;;5052526;28;20017;-77
2022/01/07 00:38:27;;;;;;;;;;;3.80;99.90;;;;;;5052533;28;19920;-77
2022/01/07 00:40:53;;;;;;;;;;;3.80;99.90;;;;;;5052647;28;19932;-77
2022/01/07 00:43:19;;;;;;;;;;;3.70;99.90;;;;;;5051668;28;20007;-78
2022/01/07 00:45:45;;;;;;;;;;;3.70;99.90;;;;;;5052570;28;20319;-77
2022/01/07 00:48:11;;;;;;;;;;;3.70;99.90;;;;;;5070558;28;19971;-77
2022/01/07 00:50:36;;;;;;;;;;;3.70;99.90;;;;;;5052141;28;19920;-77
2022/01/07 00:53:02;;;;;;;;;;;3.70;99.90;;;;;;5051846;28;19926;-78
2022/01/07 00:55:27;;;;;;;;;;;3.70;99.90;;;;;;5051815;28;19921;-78
2022/01/07 00:57:53;;;;;;;;;;;3.70;99.90;;;;;;5069997;28;19978;-78
2022/01/07 01:00:20;;;;;;;;;;;3.60;99.90;;;;;;5052599;28;19921;-78
2022/01/07 01:02:46;;;;;;;;;;;3.60;99.90;;;;;;5052114;28;19920;-78
2022/01/07 01:05:12;;;;;;;;;;;3.60;99.90;;;;;;5051338;28;20011;-78
2022/01/07 01:07:38;;;;;;;;;;;3.60;99.90;;;;;;5052244;28;20413;-78
2022/01/07 01:10:07;;;;;;;;;;;3.50;99.90;;;;;;5048570;28;19925;-78
2022/01/07 01:12:33;;;;;;;;;;;3.40;99.90;;;;;;5032049;28;19921;-78
2022/01/07 01:14:58;;;;;;;;;;;3.40;99.90;;;;;;5031935;28;20460;-78
2022/01/07 01:17:24;;;;;;;;;;;3.40;99.90;;;;;;5048506;28;19924;-78
2022/01/07 01:19:49;;;;;;;;;;;3.30;99.90;;;;;;5031758;28;19921;-78
2022/01/07 01:22:15;;;;;;;;;;;3.30;99.90;;;;;;5048633;28;19975;-78
2022/01/07 01:24:41;;;;;;;;;;;3.30;99.90;;;;;;5048693;28;20299;-78
2022/01/07 01:27:06;;;;;;;;;;;3.20;99.90;;;;;;5048680;28;19975;-78
2022/01/07 01:29:32;;;;;;;;;;;3.20;99.90;;;;;;5048083;28;19975;-78
2022/01/07 01:31:57;;;;;;;;;;;3.20;99.90;;;;;;5048660;28;19974;-78
2022/01/07 01:34:23;;;;;;;;;;;3.20;99.90;;;;;;5048406;28;19921;-78
2022/01/07 01:36:48;;;;;;;;;;;3.20;99.90;;;;;;5048374;28;19921;-78
2022/01/07 01:39:14;;;;;;;;;;;3.20;99.90;;;;;;5048121;28;19927;-78
2022/01/07 01:41:40;;;;;;;;;;;3.20;99.90;;;;;;5048585;28;20019;-78
2022/01/07 01:44:06;;;;;;;;;;;3.20;99.90;;;;;;5048328;28;19920;-78
2022/01/07 01:46:31;;;;;;;;;;;3.10;99.90;;;;;;5048321;28;19921;-78
2022/01/07 01:48:57;;;;;;;;;;;3.10;99.90;;;;;;5048341;28;20024;-78
2022/01/07 01:51:22;;;;;;;;;;;3.10;99.90;;;;;;5048052;28;20291;-78
2022/01/07 01:53:48;;;;;;;;;;;3.10;99.90;;;;;;5048334;28;19921;-77
2022/01/07 01:56:14;;;;;;;;;;;3.10;99.90;;;;;;5051666;28;20074;-78
2022/01/07 01:58:39;;;;;;;;;;;3.10;99.90;;;;;;5052093;28;19928;-78
2022/01/07 02:01:05;;;;;;;;;;;3.10;99.90;;;;;;5052152;28;20329;-77
2022/01/07 02:03:30;;;;;;;;;;;3.10;99.90;;;;;;5052247;28;19927;-78
2022/01/07 02:05:56;;;;;;;;;;;3.00;99.90;;;;;;5051575;28;20383;-78
2022/01/07 02:08:21;;;;;;;;;;;3.10;99.90;;;;;;5051527;28;19931;-77
2022/01/07 02:10:47;;;;;;;;;;;3.10;99.90;;;;;;5051490;28;19925;-78
2022/01/07 02:13:15;;;;;;;;;;;3.10;99.90;;;;;;5051973;28;20019;-78
2022/01/07 02:15:41;;;;;;;;;;;3.00;99.90;;;;;;5052331;28;19927;-78
2022/01/07 02:18:07;;;;;;;;;;;3.00;99.90;;;;;;5051509;28;20408;-78
2022/01/07 02:20:33;;;;;;;;;;;3.00;99.90;;;;;;5052248;28;19991;-78
2022/01/07 02:22:59;;;;;;;;;;;3.00;99.90;;;;;;5051731;28;19923;-78
2022/01/07 02:25:25;;;;;;;;;;;3.00;99.90;;;;;;5051538;28;20010;-78
2022/01/07 02:27:51;;;;;;;;;;;3.00;99.90;;;;;;5051815;28;19921;-78
2022/01/07 02:30:19;;;;;;;;;;;3.00;99.90;;;;;;5051398;28;20012;-78
2022/01/07 02:32:45;;;;;;;;;;;3.00;99.90;;;;;;5051495;28;19921;-78
2022/01/07 02:35:11;;;;;;;;;;;2.90;99.90;;;;;;5051824;28;19987;-78
2022/01/07 02:37:37;;;;;;;;;;;2.90;99.90;;;;;;5051109;28;20016;-78
2022/01/07 02:40:03;;;;;;;;;;;2.90;99.90;;;;;;5051416;28;20011;-78
2022/01/07 02:42:29;;;;;;;;;;;2.90;99.90;;;;;;5051273;28;19928;-78
2022/01/07 02:44:54;;;;;;;;;;;2.90;99.90;;;;;;5051232;28;19925;-78
2022/01/07 02:47:21;;;;;;;;;;;2.80;99.90;;;;;;5046859;28;19929;-78
2022/01/07 02:49:50;;;;;;;;;;;2.80;99.90;;;;;;5040144;28;20410;-78
2022/01/07 02:52:15;;;;;;;;;;;2.80;99.90;;;;;;5038114;28;19931;-78
2022/01/07 02:54:41;;;;;;;;;;;2.80;99.90;;;;;;5051166;28;20374;-78
2022/01/07 02:57:06;;;;;;;;;;;2.80;99.90;;;;;;5039345;28;19987;-77
2022/01/07 02:59:32;;;;;;;;;;;2.80;99.90;;;;;;5031386;28;19925;-78
2022/01/07 03:01:57;;;;;;;;;;;2.80;99.90;;;;;;5031252;28;19921;-78
2022/01/07 03:04:24;;;;;;;;;;;2.80;99.90;;;;;;5032728;28;19921;-78
2022/01/07 03:06:49;;;;;;;;;;;2.80;99.90;;;;;;5049890;28;19967;-78
2022/01/07 03:09:15;;;;;;;;;;;2.70;99.90;;;;;;5057065;28;19923;-78
2022/01/07 03:11:41;;;;;;;;;;;2.70;99.90;;;;;;5073947;28;20007;-78
2022/01/07 03:14:06;;;;;;;;;;;2.70;99.90;;;;;;5057570;28;19923;-78
2022/01/07 03:16:32;;;;;;;;;;;2.70;99.90;;;;;;5074243;28;20026;-78
2022/01/07 03:18:57;;;;;;;;;;;2.70;99.90;;;;;;5074104;28;19973;-78
2022/01/07 03:21:23;;;;;;;;;;;2.70;99.90;;;;;;5072927;28;19962;-78
2022/01/07 03:23:49;;;;;;;;;;;2.70;99.90;;;;;;5054153;28;19964;-78
2022/01/07 03:26:14;;;;;;;;;;;2.70;99.90;;;;;;5054157;28;19932;-78
2022/01/07 03:28:40;;;;;;;;;;;2.70;99.90;;;;;;5087101;28;19921;-78
2022/01/07 03:31:06;;;;;;;;;;;2.70;99.90;;;;;;5087036;28;20051;-78
2022/01/07 03:33:31;;;;;;;;;;;2.70;99.90;;;;;;5053897;28;19920;-78
2022/01/07 03:35:57;;;;;;;;;;;2.70;99.90;;;;;;5087236;28;19927;-78
2022/01/07 03:38:23;;;;;;;;;;;2.70;99.90;;;;;;5053765;28;19927;-78
2022/01/07 03:40:48;;;;;;;;;;;2.70;99.90;;;;;;5086778;28;20013;-78
2022/01/07 03:43:14;;;;;;;;;;;2.70;99.90;;;;;;5053952;28;19924;-78
2022/01/07 03:45:40;;;;;;;;;;;2.70;99.90;;;;;;5053552;28;20436;-78
2022/01/07 03:48:05;;;;;;;;;;;2.70;99.90;;;;;;5036371;28;19967;-78
2022/01/07 03:50:31;;;;;;;;;;;2.70;99.90;;;;;;5036838;28;20025;-78
2022/01/07 03:52:57;;;;;;;;;;;2.70;99.90;;;;;;5037097;28;19961;-78
2022/01/07 03:55:24;;;;;;;;;;;2.70;99.90;;;;;;5086987;28;20001;-78
2022/01/07 03:57:49;;;;;;;;;;;2.70;99.90;;;;;;5073400;28;19927;-78
2022/01/07 04:00:16;;;;;;;;;;;2.70;99.90;;;;;;5072958;28;20291;-78
2022/01/07 04:02:43;;;;;;;;;;;2.70;99.90;;;;;;5073451;28;19985;-78
2022/01/07 04:05:08;;;;;;;;;;;2.70;99.90;;;;;;5056762;28;19919;-78
2022/01/07 04:07:35;;;;;;;;;;;2.70;99.90;;;;;;5056733;28;19985;-78
2022/01/07 04:10:01;;;;;;;;;;;2.70;99.90;;;;;;5072932;28;19920;-78
2022/01/07 04:12:26;;;;;;;;;;;2.70;99.90;;;;;;5072810;28;20351;-78
2022/01/07 04:15:03;;;;;;;;;;;2.70;99.90;;;;;;5073377;28;20002;-78
2022/01/07 04:17:29;;;;;;;;;;;2.70;99.90;;;;;;5073269;28;19924;-78
2022/01/07 04:19:54;;;;;;;;;;;2.80;99.90;;;;;;5072998;28;20487;-78
2022/01/07 04:22:19;;;;;;;;;;;2.80;99.90;;;;;;5072725;28;19950;-78
2022/01/07 04:24:45;;;;;;;;;;;2.80;99.90;;;;;;5072737;28;19920;-78
2022/01/07 04:27:11;;;;;;;;;;;2.80;99.90;;;;;;5072537;28;20378;-78
2022/01/07 04:29:36;;;;;;;;;;;2.80;99.90;;;;;;5072760;28;19920;-78
2022/01/07 04:32:04;;;;;;;;;;;2.80;99.90;;;;;;5072765;28;19970;-78
2022/01/07 04:34:29;;;;;;;;;;;2.80;99.90;;;;;;5072444;28;19927;-78
2022/01/07 04:36:55;;;;;;;;;;;2.80;99.90;;;;;;5072434;28;19920;-78
2022/01/07 04:39:20;;;;;;;;;;;2.80;99.90;;;;;;5056218;28;19927;-78
2022/01/07 04:41:46;;;;;;;;;;;2.90;99.90;;;;;;5055736;28;19963;-78
2022/01/07 04:44:11;;;;;;;;;;;2.80;99.90;;;;;;5072396;28;19920;-78
2022/01/07 04:46:37;;;;;;;;;;;2.80;99.90;;;;;;5072449;28;19966;-78
2022/01/07 04:49:02;;;;;;;;;;;2.80;99.90;;;;;;5072389;28;20370;-78
2022/01/07 04:51:29;;;;;;;;;;;2.80;99.90;;;;;;5072732;28;19926;-78
2022/01/07 04:53:55;;;;;;;;;;;2.90;99.90;;;;;;5055675;28;20378;-78
2022/01/07 04:56:20;;;;;;;;;;;2.90;99.90;;;;;;5064378;28;19927;-78
2022/01/07 04:58:46;;;;;;;;;;;2.90;99.90;;;;;;5052557;28;19927;-78
2022/01/07 05:01:11;;;;;;;;;;;2.90;99.90;;;;;;5035478;28;19986;-78
2022/01/07 05:03:37;;;;;;;;;;;2.90;99.90;;;;;;5085864;28;19940;-78
2022/01/07 05:08:47;;;;;;;;;;;2.90;99.90;;;;;;5052210;28;20371;-78
2022/01/07 05:11:12;;;;;;;;;;;2.90;99.90;;;;;;5085418;28;19931;-78
2022/01/07 05:13:38;;;;;;;;;;;2.90;99.90;;;;;;5052313;28;19920;-78
2022/01/07 05:16:03;;;;;;;;;;;3.00;99.90;;;;;;5085823;28;19920;-78
2022/01/07 05:18:30;;;;;;;;;;;3.00;99.90;;;;;;5084464;28;20003;-78
2022/01/07 05:20:56;;;;;;;;;;;3.00;99.90;;;;;;5069013;28;20026;-78
2022/01/07 05:23:21;;;;;;;;;;;3.00;99.90;;;;;;5084827;28;19921;-78
2022/01/07 05:25:47;;;;;;;;;;;3.00;99.90;;;;;;5050801;28;19935;-78
2022/01/07 05:28:12;;;;;;;;;;;3.00;99.90;;;;;;5068846;28;19920;-78
2022/01/07 05:30:38;;;;;;;;;;;3.10;99.90;;;;;;5089471;28;19924;-78
2022/01/07 05:33:03;;;;;;;;;;;3.10;99.90;;;;;;5057224;28;19921;-78
2022/01/07 05:35:29;;;;;;;;;;;3.10;99.90;;;;;;5091500;28;20035;-78
2022/01/07 05:37:54;;;;;;;;;;;3.10;99.90;;;;;;5090922;28;19922;-78
2022/01/07 05:40:20;;;;;;;;;;;3.10;99.90;;;;;;5057512;28;19924;-78
2022/01/07 05:42:46;;;;;;;;;;;3.10;99.90;;;;;;5056875;28;19920;-78
2022/01/07 05:45:11;;;;;;;;;;;3.10;99.90;;;;;;5040571;28;19924;-78
2022/01/07 05:47:37;;;;;;;;;;;3.20;99.90;;;;;;5090963;28;19927;-78
2022/01/07 05:50:03;;;;;;;;;;;3.20;99.90;;;;;;5040725;28;20363;-78
2022/01/07 05:52:28;;;;;;;;;;;3.20;99.90;;;;;;5041147;28;19924;-78
2022/01/07 05:54:54;;;;;;;;;;;3.20;99.90;;;;;;5058388;28;19979;-78
2022/01/07 05:57:19;;;;;;;;;;;3.20;99.90;;;;;;5074869;28;19924;-78
2022/01/07 05:59:45;;;;;;;;;;;3.20;99.90;;;;;;5078004;28;20366;-78
2022/01/07 06:02:10;;;;;;;;;;;3.20;99.90;;;;;;5078711;28;19920;-78
2022/01/07 06:04:36;;;;;;;;;;;3.20;99.90;;;;;;5077320;28;19923;-78
2022/01/07 06:07:02;;;;;;;;;;;3.30;99.90;;;;;;5077714;28;20354;-78
2022/01/07 06:09:27;;;;;;;;;;;3.30;99.90;;;;;;5077606;28;20014;-78
2022/01/07 06:11:53;;;;;;;;;;;3.30;99.90;;;;;;5077256;28;20401;-78
2022/01/07 06:14:18;;;;;;;;;;;3.30;99.90;;;;;;5077018;28;19972;-78
2022/01/07 06:16:44;;;;;;;;;;;3.30;99.90;;;;;;5095180;28;19975;-78
2022/01/07 06:19:09;;;;;;;;;;;3.30;99.90;;;;;;5077098;28;19920;-78
2022/01/07 06:21:35;;;;;;;;;;;3.30;99.90;;;;;;5077313;28;19927;-78
2022/01/07 06:24:00;;;;;;;;;;;3.40;99.90;;;;;;5077805;28;19924;-78
2022/01/07 06:26:26;;;;;;;;;;;3.30;99.90;;;;;;5096151;28;19920;-78
2022/01/07 06:28:52;;;;;;;;;;;3.30;99.90;;;;;;5077768;28;19928;-77
2022/01/07 06:31:17;;;;;;;;;;;3.40;99.90;;;;;;5078405;28;19920;-78
2022/01/07 06:33:43;;;;;;;;;;;3.40;99.90;;;;;;5077768;28;19920;-78
2022/01/07 06:36:08;;;;;;;;;;;3.40;99.90;;;;;;5077476;28;19924;-78
2022/01/07 06:38:34;;;;;;;;;;;3.40;99.90;;;;;;5077805;28;19935;-78
2022/01/07 06:40:59;;;;;;;;;;;3.40;99.90;;;;;;5059768;28;19927;-78
2022/01/07 06:43:25;;;;;;;;;;;3.40;99.90;;;;;;5074337;28;20381;-75
2022/01/07 06:45:50;;;;;;;;;;;3.40;99.90;;;;;;5092631;28;19946;-76
2022/01/07 06:48:18;;;;;;;;;;;3.40;99.90;;;;;;5092125;28;19952;-75
2022/01/07 06:50:44;;;;;;;;;;;3.40;99.90;;;;;;5085590;28;19978;-84
2022/01/07 06:53:09;;;;;;;;;;;3.40;99.90;;;;;;5092241;28;19955;-77
2022/01/07 06:55:35;;;;;;;;;;;3.40;99.90;;;;;;5072460;28;19977;-77
2022/01/07 06:58:01;;;;;;;14.95;10.18;;;3.50;99.90;;;;;;5053850;28;19920;-77
2022/01/07 07:00:26;;;;;;;20.33;15.47;;;3.40;99.90;;;;;;5052709;28;20473;-77
2022/01/07 07:02:52;;;;;;;19.30;14.82;;;3.50;99.90;;;;;;5053062;28;20506;-77
2022/01/07 07:05:18;;;;;;;16.48;13.30;;;3.50;99.90;;;;;;5052430;28;20427;-77
2022/01/07 07:07:43;;;;;;;18.33;14.37;;;3.40;99.90;;;;;;5052256;28;20404;-77
2022/01/07 07:10:09;;;;;;;16.17;14.48;;;3.40;99.90;;;;;;5052206;28;20480;-77
2022/01/07 07:12:35;;;;;;;18.13;15.32;;;3.50;99.90;;;;;;5052713;28;20754;-78
2022/01/07 07:15:00;;;;;;;19.07;14.07;;;3.50;99.90;;;;;;5052357;28;20439;-77
2022/01/07 07:17:26;;;;;;;17.05;15.05;;;3.50;99.90;;;;;;5052171;28;20498;-78
2022/01/07 07:19:52;;;;;;;18.75;14.48;;;3.50;99.90;;;;;;5051970;28;20407;-77
2022/01/07 07:22:17;;;;;;;17.80;15.20;;;3.50;99.90;;;;;;5051955;28;20835;-78
2022/01/07 07:24:43;;;;;;;17.73;14.88;;;3.50;99.90;;;;;;5052216;28;20435;-78
2022/01/07 07:27:08;;;;;;;15.97;14.00;;;3.50;99.90;;;;;;5052284;28;20399;-78
2022/01/07 07:29:34;;;;;;;17.80;14.43;;;3.50;99.90;;;;;;5035398;28;20461;-77
2022/01/07 07:32:04;;;;;;;17.08;15.32;;;3.50;99.90;;;;;;5051893;28;20418;-78
2022/01/07 07:37:18;;;;;;;16.98;14.85;;;3.60;99.90;;;;;;5023900;28;20499;-77
2022/01/07 07:39:44;;;;;;;18.90;13.80;;;3.60;99.90;;;;;;5051930;28;20475;-78
2022/01/07 07:42:10;;;;;;;17.35;15.23;;;3.60;99.90;;;;;;5051238;28;20447;-78
2022/01/07 07:44:36;;;;;;;18.67;15.07;;;3.60;99.90;;;;;;5051826;28;20455;-78
2022/01/07 07:47:02;;;;;;;18.73;15.73;;;3.60;99.90;;;;;;5052068;28;20518;-77
2022/01/07 07:49:29;;;;;;;16.67;14.82;;;3.60;99.90;;;;;;5051455;28;20403;-78
2022/01/07 07:51:54;;;;;;;19.15;15.20;;;3.60;99.90;;;;;;5051827;28;20410;-77
2022/01/07 07:54:20;;;;;;;19.45;15.68;;;3.60;99.90;;;;;;5051497;28;20408;-78
2022/01/07 07:56:46;;;;;;;21.02;16.25;;;3.70;99.90;;;;;;5050741;28;20411;-78
2022/01/07 07:59:12;;;;;;;21.80;16.35;;;3.70;99.90;;;;;;5051328;28;20479;-78
2022/01/07 08:01:37;;;;;;;19.83;16.57;;;3.70;99.90;;;;;;5051704;28;20412;-77
2022/01/07 08:04:04;;;;;;;20.55;16.23;;;3.80;99.90;;;;;;5050935;28;20424;-77
2022/01/07 08:06:30;;;;;;;18.17;15.37;;;3.80;99.90;;;;;;5051401;28;20446;-77
2022/01/07 08:08:56;;;;;;;20.83;16.27;;;3.80;99.90;;;;;;5034209;28;20508;-78
2022/01/07 08:11:24;;;;;;;20.27;16.60;;;3.90;99.90;;;;;;5051074;28;20400;-77
2022/01/07 08:16:34;;;;;;;22.70;15.70;;;3.90;99.90;;;;;;5069126;28;20407;-77
2022/01/07 08:19:00;;;;;;;23.10;18.37;;;3.90;99.90;;;;;;5051063;28;20416;-77
2022/01/07 08:21:28;;;;;;;23.70;18.30;;;3.90;99.90;;;;;;5050901;28;20901;-78
2022/01/07 08:23:55;;;;;;;21.52;18.27;;;3.90;99.90;;;;;;5050723;28;20407;-77
2022/01/07 08:26:21;;;;;;;24.50;17.63;;;3.90;99.90;;;;;;5051293;28;20765;-77
2022/01/07 08:29:00;;;;;;;21.13;17.50;;;3.90;99.90;;;;;;5034090;28;20414;-77
2022/01/07 08:36:58;;;;;;;22.27;17.50;;;4.00;99.90;;;;;;5050716;28;20425;-77
2022/01/07 08:39:25;;;;;;;25.07;18.30;;;4.00;99.90;;;;;;5050608;28;20450;-77
2022/01/07 08:41:51;;;;;;;21.58;18.02;;;4.10;99.90;;;;;;5051130;28;20750;-77
2022/01/07 08:44:17;;;;;;;24.03;18.90;;;4.10;99.90;;;;;;5068519;28;20427;-77
2022/01/07 08:46:43;;;;;;;28.63;20.03;;;4.10;99.90;;;;;;5050626;28;20478;-78
2022/01/07 08:49:09;;;;;;;25.55;19.75;;;4.10;99.90;;;;;;5050225;28;20412;-77
2022/01/07 08:51:34;;;;;;;26.58;19.33;;;4.20;99.90;;;;;;5049369;28;20408;-78
2022/01/07 08:54:01;;;;;;;29.63;20.33;;;4.20;99.90;;;;;;5050064;28;20812;-77
2022/01/07 08:56:26;;;;;;;31.03;20.03;;;4.20;99.90;;;;;;5058356;28;20916;-77
2022/01/07 08:58:57;;;;;;;28.60;19.20;;;4.20;99.90;;;;;;5070669;28;20414;-77
2022/01/07 09:01:24;;;;;;;26.97;18.73;;;4.30;99.90;;;;;;5070549;28;20779;-78
2022/01/07 09:03:50;;;;;;;28.45;20.95;;;4.30;99.90;;;;;;5070056;28;20402;-78
2022/01/07 09:06:16;;;;;;;28.75;21.00;;;4.30;99.90;;;;;;5070271;28;20536;-77
2022/01/07 09:08:41;;;;;;;28.17;19.67;;;4.40;99.90;;;;;;5070431;28;20835;-78
2022/01/07 09:11:07;;;;;;;31.60;22.63;;;4.50;99.90;;;;;;5053139;28;20406;-77
2022/01/07 09:13:33;;;;;;;30.35;21.70;;;4.50;99.90;;;;;;5070006;28;20730;-77
2022/01/07 09:15:59;;;;;;;31.42;21.52;;;4.60;99.90;;;;;;5070412;28;20445;-77
2022/01/07 09:18:25;;;;;;;31.57;21.63;;;4.60;99.90;;;;;;5069812;28;20413;-77
2022/01/07 09:20:51;;;;;;;30.25;22.38;;;4.70;99.90;;;;;;5069712;28;20413;-78
2022/01/07 09:23:17;;;;;;;31.23;21.15;;;4.70;99.90;;;;;;5069862;28;20410;-77
2022/01/07 09:25:43;;;;;;;31.10;22.33;;;4.70;99.90;;;;;;5053175;28;20430;-77
2022/01/07 09:28:10;;;;;;;29.58;22.13;;;4.70;99.90;;;;;;5052817;28;20401;-77
2022/01/07 09:30:36;;;;;;;27.15;21.52;;;4.70;99.90;;;;;;5069863;28;20398;-77
2022/01/07 09:33:03;;;;;;;26.95;21.20;;;4.70;99.90;;;;;;5053081;28;20402;-78
2022/01/07 09:35:29;;;;;;;31.80;22.15;;;4.70;99.90;;;;;;5069616;28;20441;-77
2022/01/07 09:37:55;;;;;;;31.10;22.40;;;4.70;99.90;;;;;;5069247;28;21300;-78
2022/01/07 09:40:21;;;;;;;33.13;22.60;;;4.80;99.90;;;;;;5069938;28;20500;-77
2022/01/07 09:42:58;;;;;;;29.85;22.40;;;4.80;99.90;;;;;;5069779;28;20448;-77
2022/01/07 09:45:25;;;;;;;33.33;22.75;;;4.80;99.90;;;;;;5069839;28;20502;-77
2022/01/07 09:47:53;;;;;;;33.40;24.60;;;4.80;99.90;;;;;;5053025;28;20414;-77
2022/01/07 09:50:19;;;;;;;29.77;21.80;;;4.80;99.90;;;;;;5052936;28;20493;-77
2022/01/07 09:52:44;;;;;;;33.87;23.20;;;4.80;99.90;;;;;;5069613;28;20967;-77
2022/01/07 09:55:10;;;;;;;28.07;23.33;;;4.90;99.90;;;;;;5069988;28;20406;-77
2022/01/07 09:57:36;;;;;;;34.33;23.48;;;4.90;99.90;;;;;;5050897;28;20412;-77
2022/01/07 10:00:03;;;;;;;33.20;23.95;;;5.00;99.90;;;;;;5049280;28;20770;-77
2022/01/07 10:02:28;;;;;;;30.60;22.73;;;5.00;99.90;;;;;;5067838;28;20839;-77
2022/01/07 10:04:54;;;;;;;30.47;23.33;;;5.00;99.90;;;;;;5049464;28;20518;-77
2022/01/07 10:07:26;;;;;;;32.95;23.42;;;5.00;99.90;;;;;;5049734;28;20404;-77
2022/01/07 10:10:02;;;;;;;30.57;22.57;;;5.00;99.90;;;;;;5049622;28;20432;-77
2022/01/07 10:12:52;;;;;;;34.58;24.65;;;5.10;99.90;;;;;;5049541;28;20415;-77
2022/01/07 10:15:25;;;;;;;33.55;22.48;;;5.10;99.90;;;;;;5048928;28;20937;-78
2022/01/07 10:18:03;;;;;;;34.72;21.40;;;5.10;99.90;;;;;;5053429;28;20419;-77
2022/01/07 10:20:36;;;;;;;31.50;22.45;;;5.20;99.90;;;;;;5053464;28;20420;-77
2022/01/07 10:23:08;;;;;;;32.13;21.92;;;5.20;99.90;;;;;;5053262;28;20431;-77
2022/01/07 10:25:35;;;;;;;27.83;20.10;;;5.20;99.90;;;;;;5053261;28;20798;-77
2022/01/07 10:28:06;;;;;;;32.30;20.47;;;5.20;99.90;;;;;;5052798;28;20414;-77
2022/01/07 10:30:41;;;;;;;27.15;20.00;;;5.20;99.90;;;;;;5036797;28;20406;-78
2022/01/07 10:33:28;;;;;;;26.90;18.77;;;5.20;99.90;;;;;;5036528;28;20467;-77
2022/01/07 10:36:06;;;;;;;23.02;16.27;;;5.20;99.90;;;;;;5052862;28;20953;-78
2022/01/07 10:38:32;;;;;;;26.27;15.68;;;5.20;99.90;;;;;;5052809;28;20412;-77
2022/01/07 10:40:59;;;;;;;17.88;12.65;;;5.20;99.90;;;;;;5053491;28;20439;-78
2022/01/07 10:43:36;;;;;;;14.03;9.93;;;5.20;99.90;;;;;;5052823;28;20410;-77
2022/01/07 10:46:11;;;;;;;10.40;6.33;;;5.20;99.90;;;;;;5070415;28;20431;-78
2022/01/07 10:48:53;;;;;;;9.05;4.93;;;5.20;99.90;;;;;;5070951;28;20987;-77
2022/01/07 10:51:30;;;;;;;7.13;4.70;;;5.20;99.90;;;;;;5053123;28;20796;-77
2022/01/07 10:53:57;;;;;;;7.20;3.20;;;5.20;99.90;;;;;;5052834;28;20422;-77
2022/01/07 10:56:36;;;;;;;6.03;2.93;;;5.20;99.90;;;;;;5060683;28;20466;-77
2022/01/07 10:59:04;;;;;;;7.68;2.90;;;5.10;99.90;;;;;;5091126;28;20394;-77
2022/01/07 11:01:36;;;;;;;5.30;2.85;;;5.10;99.90;;;;;;5055966;28;20402;-77
2022/01/07 11:04:05;;;;;;;7.85;3.45;;;5.10;99.90;;;;;;5072680;28;20406;-78
2022/01/07 11:06:31;;;;;;;6.53;3.20;;;5.20;99.90;;;;;;5089990;28;20398;-77
2022/01/07 11:08:58;;;;;;;6.93;3.33;;;5.20;99.90;;;;;;5072508;28;20410;-78
2022/01/07 11:11:28;;;;;;;6.30;3.40;;;5.40;99.90;;;;;;5072339;28;20887;-78
2022/01/07 11:13:58;;;;;;;6.03;3.42;;;5.30;99.90;;;;;;5072039;28;20916;-77
2022/01/07 11:16:24;;;;;;;5.53;3.47;;;5.40;99.90;;;;;;5056207;28;20402;-78
2022/01/07 11:18:50;;;;;;;7.72;3.45;;;5.60;99.90;;;;;;5057061;28;20410;-77
2022/01/07 11:21:18;;;;;;;8.77;3.63;;;5.70;99.90;;;;;;5073404;28;20047;-77
2022/01/07 11:23:45;;;;;;;8.23;4.90;;;5.90;99.90;;;;;;5072158;28;20509;-78
2022/01/07 11:26:12;;;;;;;5.82;4.00;;;6.40;99.90;;;;;;5090606;28;20389;-77
2022/01/07 11:28:59;;;;;;;6.85;3.30;;;6.50;99.90;;;;;;5071218;28;20398;-78
2022/01/07 11:31:26;;;;;;;5.28;2.60;;;6.50;99.90;;;;;;5071792;28;20406;-78
2022/01/07 11:34:19;;;;;;;5.55;2.35;;;6.80;99.90;;;;;;5055034;28;20412;-78
2022/01/07 11:36:46;;;;;;;5.55;1.60;;;7.10;99.90;;;;;;5072775;28;20502;-75
2022/01/07 11:39:12;;;;;;;6.97;1.33;;;6.90;99.90;;;;;;5072864;28;20040;-75
2022/01/07 11:41:40;;;;;;;;;;;6.70;99.90;;;;;;5073649;28;20444;-75
2022/01/07 11:44:10;;;;;;;;;;;6.50;99.90;;;;;;5072918;28;20328;-75
2022/01/07 11:46:35;;;;;;;;;;;6.30;99.90;;;;;;5073856;28;20093;-75
2022/01/07 11:49:02;;;;;;;4.95;1.90;;;6.30;99.90;;;;;;5073442;28;20011;-75
2022/01/07 11:51:35;;;;;;;;;;;6.30;99.90;;;;;;5073488;28;20044;-75
2022/01/07 11:54:03;;;;;;;;;;;6.20;99.90;;;;;;5073245;28;20394;-75
2022/01/07 11:56:29;;;;;;;;;;;6.10;99.90;;;;;;5047488;28;19924;-75
2022/01/07 11:58:56;;;;;;;;;;;6.10;99.90;;;;;;5086468;28;19921;-75
2022/01/07 12:01:26;;;;;;;;;;;6.10;99.90;;;;;;5053392;28;19927;-75
2022/01/07 12:03:53;;;;;;;;;;;6.00;99.90;;;;;;5053444;28;19993;-75
2022/01/07 12:06:29;;;;;;;;;;;6.10;99.90;;;;;;5086445;28;20374;-75
2022/01/07 12:09:05;;;;;;;;;;;6.10;99.90;;;;;;5052790;28;20325;-78
2022/01/07 12:11:34;;;;;;;;;;;6.20;99.90;;;;;;5053152;28;19920;-77
2022/01/07 12:14:00;;;;;;;;;;;6.20;99.90;;;;;;5052969;28;20465;-75
2022/01/07 12:16:27;;;;;;;;;;;6.20;99.90;;;;;;5086629;28;19927;-75
2022/01/07 12:19:08;;;;;;;;;;;6.20;99.90;;;;;;5053108;28;19927;-75
2022/01/07 12:21:36;;;;;;;;;;;6.40;99.90;;;;;;5053134;28;19978;-76
2022/01/07 12:24:08;;;;;;;;;;;6.60;99.90;;;;;;5052987;28;19924;-76
2022/01/07 12:26:34;;;;;;;;;;;6.70;99.90;;;;;;5086367;28;19924;-75
2022/01/07 12:29:00;;;;;;;;;;;6.80;99.90;;;;;;5053319;28;19939;-75
2022/01/07 12:31:25;;;;;;;;;;;6.60;99.90;;;;;;5085985;28;20015;-75
2022/01/07 12:33:55;;;;;;;;;;;6.50;99.90;;;;;;5052371;28;19920;-75
2022/01/07 12:36:31;;;;;;;;;;;6.50;99.90;;;;;;5052569;28;20007;-76
2022/01/07 12:39:10;;;;;;;;;;;6.70;99.90;;;;;;5051432;28;19928;-75
2022/01/07 12:41:36;;;;;;;;;;;6.80;99.90;;;;;;5052733;28;19921;-76
2022/01/07 12:44:06;;;;;;;;;;;6.90;99.90;;;;;;5035586;28;19972;-75
2022/01/07 12:46:31;;;;;;;;;;;6.90;99.90;;;;;;5052317;28;19920;-75
2022/01/07 12:48:57;;;;;;;;;;;6.80;99.90;;;;;;5051996;28;19966;-75
2022/01/07 12:51:22;;;;;;;;;;;6.70;99.90;;;;;;5052039;28;20365;-75
2022/01/07 12:53:59;;;;;;;;;;;6.60;99.90;;;;;;5052368;28;19928;-75
2022/01/07 12:56:26;;;;;;;;;;;6.50;99.90;;;;;;5060797;28;19926;-75
2022/01/07 12:58:51;;;;;;;;;;;6.40;99.90;;;;;;5072120;28;19943;-75
2022/01/07 13:01:35;;;;;;;;;;;6.30;99.90;;;;;;5072439;28;19924;-75
2022/01/07 13:04:04;;;;;;;;;;;6.30;99.90;;;;;;5055333;28;19920;-75
2022/01/07 13:06:30;;;;;;;;;;;6.50;99.90;;;;;;5072397;28;20400;-75
2022/01/07 13:08:56;;;;;;;;;;;6.60;99.90;;;;;;5071492;28;20046;-75
2022/01/07 13:11:22;;;;;;;;;;;6.60;99.90;;;;;;5070610;28;20310;-75
2022/01/07 13:14:00;;;;;;;;;;;6.70;99.90;;;;;;5054299;28;19946;-75
2022/01/07 13:16:27;;;;;;;;;;;6.80;99.90;;;;;;5070992;28;19981;-75
2022/01/07 13:18:53;;;;;;;;;;;6.90;99.90;;;;;;5071098;28;19965;-75
2022/01/07 13:21:19;;;;;;;;;;;6.90;99.90;;;;;;5071633;28;20658;-75
2022/01/07 13:23:52;;;;;;;;;;;6.70;99.90;;;;;;5071651;28;19927;-75
2022/01/07 13:26:17;;;;;;;;;;;6.60;99.90;;;;;;5070994;28;20435;-75
2022/01/07 13:28:45;;;;;;;;;;;6.50;99.90;;;;;;5070912;28;19920;-75
2022/01/07 13:31:11;;;;;;;;;;;6.70;99.90;;;;;;5070375;28;19971;-75
2022/01/07 13:33:38;;;;;;;;;;;6.70;99.90;;;;;;5054491;28;19930;-75
2022/01/07 13:36:06;;;;;;;;;;;6.60;99.90;;;;;;5070908;28;20788;-75
2022/01/07 13:38:32;;;;;;;;;;;6.50;99.90;;;;;;5053807;28;19920;-75
2022/01/07 13:41:01;;;;;;;;;;;6.40;99.90;;;;;;5071039;28;19986;-75
2022/01/07 13:43:29;;;;;;;;;;;6.30;99.90;;;;;;5071234;28;19920;-75
2022/01/07 13:46:06;;;;;;;;;;;6.30;99.90;;;;;;5070623;28;20318;-75
2022/01/07 13:48:32;;;;;;;;;;;6.30;99.90;;;;;;5054596;28;20030;-77
2022/01/07 13:51:08;;;;;;;;;;;6.20;99.90;;;;;;5054576;28;20382;-77
2022/01/07 13:53:33;;;;;;;;;;;6.10;99.90;;;;;;5058338;28;19920;-77
2022/01/07 13:56:05;;;;;;;;;;;6.00;99.90;;;;;;5052704;28;19924;-77
2022/01/07 13:58:31;;;;;;;;;;;6.10;99.90;;;;;;5037840;28;19928;-77
2022/01/07 14:01:04;;;;;;;;;;;6.10;99.90;;;;;;5055266;28;19927;-77
2022/01/07 14:03:46;;;;;;;;;;;6.00;99.90;;;;;;5055817;28;19985;-77
2022/01/07 14:06:12;;;;;;;;;;;6.00;99.90;;;;;;5073666;28;19972;-77